sensor_id;sensor_type;location;lat;lon;timestamp;P1;durP1;ratioP1;P2;durP2;ratioP2
26311;SDS011;14019;56.964;24.016;2023-05-10T00:01:10;22.90;;;9.13;;
26311;SDS011;14019;56.964;24.016;2023-05-10T00:04:02;21.38;;;10.30;;
26311;SDS011;14019;56.964;24.016;2023-05-10T00:06:54;23.63;;;10.43;;
26311;SDS011;14019;56.964;24.016;2023-05-10T00:09:50;23.80;;;10.02;;
26311;SDS011;14019;56.964;24.016;2023-05-10T00:12:47;37.70;;;10.68;;
26311;SDS011;14019;56.964;24.016;2023-05-10T00:15:39;28.40;;;11.05;;
26311;SDS011;14019;56.964;24.016;2023-05-10T00:18:27;26.48;;;10.82;;
26311;SDS011;14019;56.964;24.016;2023-05-10T00:21:15;28.98;;;12.20;;
26311;SDS011;14019;56.964;24.016;2023-05-10T00:24:05;30.20;;;12.07;;
26311;SDS011;14019;56.964;24.016;2023-05-10T00:27:03;35.35;;;13.13;;
26311;SDS011;14019;56.964;24.016;2023-05-10T00:29:51;30.00;;;11.85;;
26311;SDS011;14019;56.964;24.016;2023-05-10T00:32:42;23.75;;;11.43;;
26311;SDS011;14019;56.964;24.016;2023-05-10T00:35:30;27.75;;;11.98;;
26311;SDS011;14019;56.964;24.016;2023-05-10T00:38:23;25.58;;;12.10;;
26311;SDS011;14019;56.964;24.016;2023-05-10T00:41:40;30.70;;;12.25;;
26311;SDS011;14019;56.964;24.016;2023-05-10T00:44:57;33.47;;;11.90;;
26311;SDS011;14019;56.964;24.016;2023-05-10T00:48:17;18.60;;;8.70;;
26311;SDS011;14019;56.964;24.016;2023-05-10T00:51:25;34.78;;;12.07;;
26311;SDS011;14019;56.964;24.016;2023-05-10T00:54:45;32.13;;;12.73;;
26311;SDS011;14019;56.964;24.016;2023-05-10T00:58:01;32.05;;;12.45;;
26311;SDS011;14019;56.964;24.016;2023-05-10T01:00:51;28.45;;;11.90;;
26311;SDS011;14019;56.964;24.016;2023-05-10T01:03:48;23.10;;;10.55;;
26311;SDS011;14019;56.964;24.016;2023-05-10T01:06:41;30.83;;;11.10;;
26311;SDS011;14019;56.964;24.016;2023-05-10T01:09:39;32.70;;;12.00;;
26311;SDS011;14019;56.964;24.016;2023-05-10T01:12:40;27.10;;;11.65;;
26311;SDS011;14019;56.964;24.016;2023-05-10T01:15:34;23.80;;;9.68;;
26311;SDS011;14019;56.964;24.016;2023-05-10T01:18:27;20.17;;;9.90;;
26311;SDS011;14019;56.964;24.016;2023-05-10T01:21:23;21.88;;;9.60;;
26311;SDS011;14019;56.964;24.016;2023-05-10T01:36:58;26.05;;;8.68;;
26311;SDS011;14019;56.964;24.016;2023-05-10T01:40:08;18.45;;;8.30;;
26311;SDS011;14019;56.964;24.016;2023-05-10T01:43:04;19.98;;;8.43;;
26311;SDS011;14019;56.964;24.016;2023-05-10T01:46:05;27.08;;;9.85;;
26311;SDS011;14019;56.964;24.016;2023-05-10T01:49:02;20.17;;;8.25;;
26311;SDS011;14019;56.964;24.016;2023-05-10T01:52:04;26.15;;;8.93;;
26311;SDS011;14019;56.964;24.016;2023-05-10T01:55:19;18.02;;;8.07;;
26311;SDS011;14019;56.964;24.016;2023-05-10T02:01:57;20.95;;;7.53;;
26311;SDS011;14019;56.964;24.016;2023-05-10T02:05:05;21.13;;;7.78;;
26311;SDS011;14019;56.964;24.016;2023-05-10T02:08:07;19.90;;;7.45;;
26311;SDS011;14019;56.964;24.016;2023-05-10T02:11:04;21.48;;;8.20;;
26311;SDS011;14019;56.964;24.016;2023-05-10T02:14:55;17.95;;;7.65;;
26311;SDS011;14019;56.964;24.016;2023-05-10T02:18:06;21.00;;;7.93;;
26311;SDS011;14019;56.964;24.016;2023-05-10T02:20:54;19.35;;;8.30;;
26311;SDS011;14019;56.964;24.016;2023-05-10T02:24:05;24.27;;;8.73;;
26311;SDS011;14019;56.964;24.016;2023-05-10T02:27:51;20.95;;;8.48;;
26311;SDS011;14019;56.964;24.016;2023-05-10T02:30:39;18.15;;;8.27;;
26311;SDS011;14019;56.964;24.016;2023-05-10T02:33:33;22.42;;;8.38;;
26311;SDS011;14019;56.964;24.016;2023-05-10T02:36:40;20.63;;;7.30;;
26311;SDS011;14019;56.964;24.016;2023-05-10T02:39:35;23.20;;;8.20;;
26311;SDS011;14019;56.964;24.016;2023-05-10T02:42:23;23.52;;;7.70;;
26311;SDS011;14019;56.964;24.016;2023-05-10T02:45:12;21.15;;;7.60;;
26311;SDS011;14019;56.964;24.016;2023-05-10T02:48:38;20.20;;;7.72;;
26311;SDS011;14019;56.964;24.016;2023-05-10T02:51:31;26.17;;;8.32;;
26311;SDS011;14019;56.964;24.016;2023-05-10T02:54:22;20.70;;;6.90;;
26311;SDS011;14019;56.964;24.016;2023-05-10T02:57:30;19.73;;;7.55;;
26311;SDS011;14019;56.964;24.016;2023-05-10T03:00:23;21.77;;;7.80;;
26311;SDS011;14019;56.964;24.016;2023-05-10T03:03:12;26.92;;;8.30;;
26311;SDS011;14019;56.964;24.016;2023-05-10T03:06:00;23.40;;;7.65;;
26311;SDS011;14019;56.964;24.016;2023-05-10T03:08:48;16.00;;;7.15;;
26311;SDS011;14019;56.964;24.016;2023-05-10T03:14:53;22.30;;;7.10;;
26311;SDS011;14019;56.964;24.016;2023-05-10T03:20:54;23.83;;;6.97;;
26311;SDS011;14019;56.964;24.016;2023-05-10T03:24:08;16.10;;;6.80;;
26311;SDS011;14019;56.964;24.016;2023-05-10T03:26:58;14.10;;;6.90;;
26311;SDS011;14019;56.964;24.016;2023-05-10T03:29:49;18.38;;;6.75;;
26311;SDS011;14019;56.964;24.016;2023-05-10T03:32:43;22.08;;;6.93;;
26311;SDS011;14019;56.964;24.016;2023-05-10T03:35:34;16.10;;;6.55;;
26311;SDS011;14019;56.964;24.016;2023-05-10T03:38:21;22.00;;;6.80;;
26311;SDS011;14019;56.964;24.016;2023-05-10T03:41:15;12.93;;;6.28;;
26311;SDS011;14019;56.964;24.016;2023-05-10T03:44:02;14.68;;;6.25;;
26311;SDS011;14019;56.964;24.016;2023-05-10T03:46:53;14.32;;;6.35;;
26311;SDS011;14019;56.964;24.016;2023-05-10T03:49:41;20.20;;;7.30;;
26311;SDS011;14019;56.964;24.016;2023-05-10T03:52:30;21.50;;;6.55;;
26311;SDS011;14019;56.964;24.016;2023-05-10T03:55:23;22.20;;;6.55;;
26311;SDS011;14019;56.964;24.016;2023-05-10T03:58:11;14.32;;;6.57;;
26311;SDS011;14019;56.964;24.016;2023-05-10T04:00:58;14.13;;;6.15;;
26311;SDS011;14019;56.964;24.016;2023-05-10T04:03:45;17.13;;;6.53;;
26311;SDS011;14019;56.964;24.016;2023-05-10T04:06:32;16.10;;;6.47;;
26311;SDS011;14019;56.964;24.016;2023-05-10T04:09:21;14.88;;;6.60;;
26311;SDS011;14019;56.964;24.016;2023-05-10T04:12:09;19.35;;;6.78;;
26311;SDS011;14019;56.964;24.016;2023-05-10T04:15:02;14.57;;;6.88;;
26311;SDS011;14019;56.964;24.016;2023-05-10T04:18:15;14.60;;;6.60;;
26311;SDS011;14019;56.964;24.016;2023-05-10T04:21:10;19.83;;;7.07;;
26311;SDS011;14019;56.964;24.016;2023-05-10T04:35:22;19.83;;;7.07;;
26311;SDS011;14019;56.964;24.016;2023-05-10T04:38:13;19.65;;;7.35;;
26311;SDS011;14019;56.964;24.016;2023-05-10T04:41:09;24.13;;;7.00;;
26311;SDS011;14019;56.964;24.016;2023-05-10T04:44:04;15.25;;;6.70;;
26311;SDS011;14019;56.964;24.016;2023-05-10T04:47:00;23.02;;;6.93;;
26311;SDS011;14019;56.964;24.016;2023-05-10T04:50:04;20.27;;;6.25;;
26311;SDS011;14019;56.964;24.016;2023-05-10T04:52:52;14.00;;;6.68;;
26311;SDS011;14019;56.964;24.016;2023-05-10T04:55:43;18.75;;;6.97;;
26311;SDS011;14019;56.964;24.016;2023-05-10T04:58:33;24.88;;;6.97;;
26311;SDS011;14019;56.964;24.016;2023-05-10T05:01:26;19.45;;;7.15;;
26311;SDS011;14019;56.964;24.016;2023-05-10T05:04:19;23.17;;;7.38;;
26311;SDS011;14019;56.964;24.016;2023-05-10T05:07:09;13.13;;;7.38;;
26311;SDS011;14019;56.964;24.016;2023-05-10T05:09:56;17.63;;;6.93;;
26311;SDS011;14019;56.964;24.016;2023-05-10T05:12:42;15.02;;;6.38;;
26311;SDS011;14019;56.964;24.016;2023-05-10T05:15:29;23.83;;;7.30;;
26311;SDS011;14019;56.964;24.016;2023-05-10T05:18:16;18.60;;;6.75;;
26311;SDS011;14019;56.964;24.016;2023-05-10T05:21:14;24.52;;;7.07;;
26311;SDS011;14019;56.964;24.016;2023-05-10T05:24:02;24.95;;;7.00;;
26311;SDS011;14019;56.964;24.016;2023-05-10T05:26:49;22.65;;;6.80;;
26311;SDS011;14019;56.964;24.016;2023-05-10T05:29:36;21.52;;;6.80;;
26311;SDS011;14019;56.964;24.016;2023-05-10T05:32:24;20.52;;;7.10;;
26311;SDS011;14019;56.964;24.016;2023-05-10T05:35:11;17.42;;;7.13;;
26311;SDS011;14019;56.964;24.016;2023-05-10T05:37:58;20.38;;;7.30;;
26311;SDS011;14019;56.964;24.016;2023-05-10T05:40:45;20.15;;;6.72;;
26311;SDS011;14019;56.964;24.016;2023-05-10T05:43:32;16.92;;;6.82;;
26311;SDS011;14019;56.964;24.016;2023-05-10T05:46:22;20.10;;;7.10;;
26311;SDS011;14019;56.964;24.016;2023-05-10T05:49:09;27.15;;;7.00;;
26311;SDS011;14019;56.964;24.016;2023-05-10T05:52:01;17.30;;;6.85;;
26311;SDS011;14019;56.964;24.016;2023-05-10T05:54:48;18.50;;;6.70;;
26311;SDS011;14019;56.964;24.016;2023-05-10T05:57:38;26.27;;;6.82;;
26311;SDS011;14019;56.964;24.016;2023-05-10T06:00:33;22.00;;;6.18;;
26311;SDS011;14019;56.964;24.016;2023-05-10T06:09:12;15.67;;;6.97;;
26311;SDS011;14019;56.964;24.016;2023-05-10T06:30:15;18.92;;;6.28;;
26311;SDS011;14019;56.964;24.016;2023-05-10T06:33:03;18.73;;;6.47;;
26311;SDS011;14019;56.964;24.016;2023-05-10T06:35:51;18.08;;;6.22;;
26311;SDS011;14019;56.964;24.016;2023-05-10T06:38:38;24.58;;;6.22;;
26311;SDS011;14019;56.964;24.016;2023-05-10T06:41:24;17.50;;;5.80;;
26311;SDS011;14019;56.964;24.016;2023-05-10T06:44:12;17.13;;;5.68;;
26311;SDS011;14019;56.964;24.016;2023-05-10T06:46:59;11.45;;;5.68;;
26311;SDS011;14019;56.964;24.016;2023-05-10T06:49:46;15.82;;;5.53;;
26311;SDS011;14019;56.964;24.016;2023-05-10T06:52:32;17.42;;;5.00;;
26311;SDS011;14019;56.964;24.016;2023-05-10T06:55:24;15.70;;;5.38;;
26311;SDS011;14019;56.964;24.016;2023-05-10T06:58:11;14.25;;;4.47;;
26311;SDS011;14019;56.964;24.016;2023-05-10T07:01:04;17.65;;;4.40;;
26311;SDS011;14019;56.964;24.016;2023-05-10T07:03:51;13.57;;;4.68;;
26311;SDS011;14019;56.964;24.016;2023-05-10T07:06:37;8.20;;;4.40;;
26311;SDS011;14019;56.964;24.016;2023-05-10T07:09:24;15.10;;;4.78;;
26311;SDS011;14019;56.964;24.016;2023-05-10T07:12:10;16.52;;;4.22;;
26311;SDS011;14019;56.964;24.016;2023-05-10T07:15:00;14.20;;;4.25;;
26311;SDS011;14019;56.964;24.016;2023-05-10T07:17:46;11.20;;;4.00;;
26311;SDS011;14019;56.964;24.016;2023-05-10T07:20:33;14.50;;;4.53;;
26311;SDS011;14019;56.964;24.016;2023-05-10T07:23:20;17.05;;;4.53;;
26311;SDS011;14019;56.964;24.016;2023-05-10T07:26:06;17.83;;;4.60;;
26311;SDS011;14019;56.964;24.016;2023-05-10T07:28:53;15.98;;;4.38;;
26311;SDS011;14019;56.964;24.016;2023-05-10T07:31:40;9.10;;;4.60;;
26311;SDS011;14019;56.964;24.016;2023-05-10T07:34:28;11.25;;;4.75;;
26311;SDS011;14019;56.964;24.016;2023-05-10T07:37:17;9.55;;;4.28;;
26311;SDS011;14019;56.964;24.016;2023-05-10T07:40:03;21.35;;;4.68;;
26311;SDS011;14019;56.964;24.016;2023-05-10T07:42:53;8.35;;;4.20;;
26311;SDS011;14019;56.964;24.016;2023-05-10T07:45:39;9.25;;;4.18;;
26311;SDS011;14019;56.964;24.016;2023-05-10T07:48:26;10.55;;;4.57;;
26311;SDS011;14019;56.964;24.016;2023-05-10T07:51:14;18.30;;;4.53;;
26311;SDS011;14019;56.964;24.016;2023-05-10T07:54:01;15.55;;;4.45;;
26311;SDS011;14019;56.964;24.016;2023-05-10T07:56:47;9.18;;;4.15;;
26311;SDS011;14019;56.964;24.016;2023-05-10T07:59:34;12.48;;;4.30;;
26311;SDS011;14019;56.964;24.016;2023-05-10T08:02:23;13.23;;;4.30;;
26311;SDS011;14019;56.964;24.016;2023-05-10T08:05:09;7.57;;;4.13;;
26311;SDS011;14019;56.964;24.016;2023-05-10T08:07:56;15.85;;;4.28;;
26311;SDS011;14019;56.964;24.016;2023-05-10T08:10:43;16.40;;;4.15;;
26311;SDS011;14019;56.964;24.016;2023-05-10T08:13:29;10.40;;;4.00;;
26311;SDS011;14019;56.964;24.016;2023-05-10T08:16:17;13.00;;;4.28;;
26311;SDS011;14019;56.964;24.016;2023-05-10T08:19:03;12.10;;;4.32;;
26311;SDS011;14019;56.964;24.016;2023-05-10T08:21:50;9.75;;;4.55;;
26311;SDS011;14019;56.964;24.016;2023-05-10T08:24:37;9.95;;;4.13;;
26311;SDS011;14019;56.964;24.016;2023-05-10T08:27:24;8.02;;;4.20;;
26311;SDS011;14019;56.964;24.016;2023-05-10T08:30:10;9.50;;;4.25;;
26311;SDS011;14019;56.964;24.016;2023-05-10T08:32:58;7.13;;;4.13;;
26311;SDS011;14019;56.964;24.016;2023-05-10T08:35:44;8.40;;;4.25;;
26311;SDS011;14019;56.964;24.016;2023-05-10T08:38:31;9.15;;;4.22;;
26311;SDS011;14019;56.964;24.016;2023-05-10T08:41:19;6.70;;;4.10;;
26311;SDS011;14019;56.964;24.016;2023-05-10T08:44:10;6.15;;;4.07;;
26311;SDS011;14019;56.964;24.016;2023-05-10T08:46:57;7.88;;;4.10;;
26311;SDS011;14019;56.964;24.016;2023-05-10T08:49:47;7.78;;;4.18;;
26311;SDS011;14019;56.964;24.016;2023-05-10T08:52:37;9.52;;;4.47;;
26311;SDS011;14019;56.964;24.016;2023-05-10T08:55:25;8.50;;;4.25;;
26311;SDS011;14019;56.964;24.016;2023-05-10T08:58:11;8.18;;;4.30;;
26311;SDS011;14019;56.964;24.016;2023-05-10T09:00:58;11.50;;;4.35;;
26311;SDS011;14019;56.964;24.016;2023-05-10T09:03:46;13.20;;;4.30;;
26311;SDS011;14019;56.964;24.016;2023-05-10T09:06:33;7.25;;;3.88;;
26311;SDS011;14019;56.964;24.016;2023-05-10T09:09:20;9.38;;;4.25;;
26311;SDS011;14019;56.964;24.016;2023-05-10T09:12:08;14.00;;;4.38;;
26311;SDS011;14019;56.964;24.016;2023-05-10T09:15:00;10.27;;;4.05;;
26311;SDS011;14019;56.964;24.016;2023-05-10T09:17:46;9.65;;;3.78;;
26311;SDS011;14019;56.964;24.016;2023-05-10T09:20:33;8.18;;;3.78;;
26311;SDS011;14019;56.964;24.016;2023-05-10T09:23:19;8.27;;;3.95;;
26311;SDS011;14019;56.964;24.016;2023-05-10T09:26:06;6.75;;;3.50;;
26311;SDS011;14019;56.964;24.016;2023-05-10T09:28:54;6.35;;;3.97;;
26311;SDS011;14019;56.964;24.016;2023-05-10T09:31:48;6.60;;;4.07;;
26311;SDS011;14019;56.964;24.016;2023-05-10T09:34:41;9.10;;;4.00;;
26311;SDS011;14019;56.964;24.016;2023-05-10T09:37:31;8.07;;;3.85;;
26311;SDS011;14019;56.964;24.016;2023-05-10T09:40:27;8.50;;;3.58;;
26311;SDS011;14019;56.964;24.016;2023-05-10T09:43:19;9.57;;;4.10;;
26311;SDS011;14019;56.964;24.016;2023-05-10T09:46:09;10.10;;;4.10;;
26311;SDS011;14019;56.964;24.016;2023-05-10T09:48:56;9.50;;;3.88;;
26311;SDS011;14019;56.964;24.016;2023-05-10T09:51:43;9.75;;;4.20;;
26311;SDS011;14019;56.964;24.016;2023-05-10T09:54:30;7.50;;;3.72;;
26311;SDS011;14019;56.964;24.016;2023-05-10T09:57:20;12.70;;;3.42;;
26311;SDS011;14019;56.964;24.016;2023-05-10T10:00:07;7.28;;;3.63;;
26311;SDS011;14019;56.964;24.016;2023-05-10T10:02:58;7.13;;;3.83;;
26311;SDS011;14019;56.964;24.016;2023-05-10T10:05:45;9.13;;;3.50;;
26311;SDS011;14019;56.964;24.016;2023-05-10T10:08:32;7.15;;;3.97;;
26311;SDS011;14019;56.964;24.016;2023-05-10T10:11:19;9.15;;;3.78;;
26311;SDS011;14019;56.964;24.016;2023-05-10T10:14:05;5.32;;;3.47;;
26311;SDS011;14019;56.964;24.016;2023-05-10T10:16:52;9.38;;;3.83;;
26311;SDS011;14019;56.964;24.016;2023-05-10T10:19:52;6.78;;;3.67;;
26311;SDS011;14019;56.964;24.016;2023-05-10T10:22:39;5.10;;;3.63;;
26311;SDS011;14019;56.964;24.016;2023-05-10T10:25:25;14.43;;;4.20;;
26311;SDS011;14019;56.964;24.016;2023-05-10T10:28:16;8.38;;;3.78;;
26311;SDS011;14019;56.964;24.016;2023-05-10T10:34:28;8.68;;;3.50;;
26311;SDS011;14019;56.964;24.016;2023-05-10T10:37:14;6.57;;;3.42;;
26311;SDS011;14019;56.964;24.016;2023-05-10T10:40:07;8.20;;;3.80;;
26311;SDS011;14019;56.964;24.016;2023-05-10T10:43:21;13.40;;;3.85;;
26311;SDS011;14019;56.964;24.016;2023-05-10T10:49:08;11.25;;;3.90;;
26311;SDS011;14019;56.964;24.016;2023-05-10T10:55:07;12.10;;;3.88;;
26311;SDS011;14019;56.964;24.016;2023-05-10T10:57:57;7.80;;;3.75;;
26311;SDS011;14019;56.964;24.016;2023-05-10T11:00:47;7.22;;;3.75;;
26311;SDS011;14019;56.964;24.016;2023-05-10T11:03:34;8.93;;;3.80;;
26311;SDS011;14019;56.964;24.016;2023-05-10T11:09:19;11.35;;;3.90;;
26311;SDS011;14019;56.964;24.016;2023-05-10T11:12:10;8.07;;;4.07;;
26311;SDS011;14019;56.964;24.016;2023-05-10T11:14:57;5.75;;;3.63;;
26311;SDS011;14019;56.964;24.016;2023-05-10T11:17:44;9.63;;;3.88;;
26311;SDS011;14019;56.964;24.016;2023-05-10T11:20:38;13.57;;;3.65;;
26311;SDS011;14019;56.964;24.016;2023-05-10T11:26:18;11.30;;;3.67;;
26311;SDS011;14019;56.964;24.016;2023-05-10T11:29:05;11.38;;;4.10;;
26311;SDS011;14019;56.964;24.016;2023-05-10T11:31:52;9.15;;;3.90;;
26311;SDS011;14019;56.964;24.016;2023-05-10T11:34:39;9.38;;;4.00;;
26311;SDS011;14019;56.964;24.016;2023-05-10T11:37:27;9.32;;;3.80;;
26311;SDS011;14019;56.964;24.016;2023-05-10T11:40:17;8.05;;;3.80;;
26311;SDS011;14019;56.964;24.016;2023-05-10T11:43:04;10.52;;;4.18;;
26311;SDS011;14019;56.964;24.016;2023-05-10T11:45:51;11.85;;;4.55;;
26311;SDS011;14019;56.964;24.016;2023-05-10T11:48:41;7.90;;;3.80;;
26311;SDS011;14019;56.964;24.016;2023-05-10T11:51:27;6.53;;;3.88;;
26311;SDS011;14019;56.964;24.016;2023-05-10T11:54:17;9.23;;;3.97;;
26311;SDS011;14019;56.964;24.016;2023-05-10T11:57:04;10.05;;;4.10;;
26311;SDS011;14019;56.964;24.016;2023-05-10T11:59:53;9.38;;;3.88;;
26311;SDS011;14019;56.964;24.016;2023-05-10T12:02:40;10.45;;;4.10;;
26311;SDS011;14019;56.964;24.016;2023-05-10T12:05:26;10.07;;;3.88;;
26311;SDS011;14019;56.964;24.016;2023-05-10T12:08:21;10.50;;;4.00;;
26311;SDS011;14019;56.964;24.016;2023-05-10T12:11:09;12.50;;;4.05;;
26311;SDS011;14019;56.964;24.016;2023-05-10T12:13:56;9.65;;;3.97;;
26311;SDS011;14019;56.964;24.016;2023-05-10T12:16:42;10.70;;;3.65;;
26311;SDS011;14019;56.964;24.016;2023-05-10T12:19:36;10.32;;;4.28;;
26311;SDS011;14019;56.964;24.016;2023-05-10T12:22:23;13.93;;;4.53;;
26311;SDS011;14019;56.964;24.016;2023-05-10T12:25:09;8.25;;;4.20;;
26311;SDS011;14019;56.964;24.016;2023-05-10T12:27:56;11.85;;;4.40;;
26311;SDS011;14019;56.964;24.016;2023-05-10T12:30:43;11.75;;;4.55;;
26311;SDS011;14019;56.964;24.016;2023-05-10T12:33:40;11.48;;;4.22;;
26311;SDS011;14019;56.964;24.016;2023-05-10T12:36:28;7.38;;;4.22;;
26311;SDS011;14019;56.964;24.016;2023-05-10T12:39:14;9.65;;;4.15;;
26311;SDS011;14019;56.964;24.016;2023-05-10T12:42:01;9.95;;;4.53;;
26311;SDS011;14019;56.964;24.016;2023-05-10T12:44:48;10.48;;;4.07;;
26311;SDS011;14019;56.964;24.016;2023-05-10T12:47:34;12.18;;;4.45;;
26311;SDS011;14019;56.964;24.016;2023-05-10T12:50:21;11.80;;;4.93;;
26311;SDS011;14019;56.964;24.016;2023-05-10T12:53:09;15.35;;;5.50;;
26311;SDS011;14019;56.964;24.016;2023-05-10T12:55:56;12.27;;;5.18;;
26311;SDS011;14019;56.964;24.016;2023-05-10T12:58:42;15.30;;;5.25;;
26311;SDS011;14019;56.964;24.016;2023-05-10T13:01:33;15.85;;;5.28;;
26311;SDS011;14019;56.964;24.016;2023-05-10T13:04:22;9.55;;;4.82;;
26311;SDS011;14019;56.964;24.016;2023-05-10T13:07:09;9.88;;;4.68;;
26311;SDS011;14019;56.964;24.016;2023-05-10T13:09:56;12.00;;;5.05;;
26311;SDS011;14019;56.964;24.016;2023-05-10T13:12:42;17.98;;;5.22;;
26311;SDS011;14019;56.964;24.016;2023-05-10T13:15:28;10.98;;;5.00;;
26311;SDS011;14019;56.964;24.016;2023-05-10T13:18:15;12.50;;;5.30;;
26311;SDS011;14019;56.964;24.016;2023-05-10T13:21:05;9.88;;;5.07;;
26311;SDS011;14019;56.964;24.016;2023-05-10T13:23:53;12.60;;;4.95;;
26311;SDS011;14019;56.964;24.016;2023-05-10T13:26:40;11.20;;;4.40;;
26311;SDS011;14019;56.964;24.016;2023-05-10T13:29:26;6.90;;;4.13;;
26311;SDS011;14019;56.964;24.016;2023-05-10T13:32:13;11.32;;;4.07;;
26311;SDS011;14019;56.964;24.016;2023-05-10T13:34:59;8.68;;;4.07;;
26311;SDS011;14019;56.964;24.016;2023-05-10T13:37:45;7.60;;;4.00;;
26311;SDS011;14019;56.964;24.016;2023-05-10T13:40:33;8.02;;;4.18;;
26311;SDS011;14019;56.964;24.016;2023-05-10T13:43:25;13.02;;;4.80;;
26311;SDS011;14019;56.964;24.016;2023-05-10T13:46:11;14.80;;;8.15;;
26311;SDS011;14019;56.964;24.016;2023-05-10T13:48:58;22.38;;;8.77;;
26311;SDS011;14019;56.964;24.016;2023-05-10T13:51:47;21.98;;;9.90;;
26311;SDS011;14019;56.964;24.016;2023-05-10T13:54:34;13.45;;;6.00;;
26311;SDS011;14019;56.964;24.016;2023-05-10T13:57:23;15.00;;;5.90;;
26311;SDS011;14019;56.964;24.016;2023-05-10T14:00:10;14.55;;;4.78;;
26311;SDS011;14019;56.964;24.016;2023-05-10T14:02:57;10.65;;;4.90;;
26311;SDS011;14019;56.964;24.016;2023-05-10T14:05:43;10.23;;;5.30;;
26311;SDS011;14019;56.964;24.016;2023-05-10T14:08:30;9.45;;;4.57;;
26311;SDS011;14019;56.964;24.016;2023-05-10T14:11:17;12.93;;;5.78;;
26311;SDS011;14019;56.964;24.016;2023-05-10T14:14:03;13.35;;;5.93;;
26311;SDS011;14019;56.964;24.016;2023-05-10T14:16:51;9.55;;;4.70;;
26311;SDS011;14019;56.964;24.016;2023-05-10T14:19:37;9.55;;;4.40;;
26311;SDS011;14019;56.964;24.016;2023-05-10T14:22:24;14.07;;;4.78;;
26311;SDS011;14019;56.964;24.016;2023-05-10T14:25:10;10.68;;;4.63;;
26311;SDS011;14019;56.964;24.016;2023-05-10T14:27:57;12.20;;;5.10;;
26311;SDS011;14019;56.964;24.016;2023-05-10T14:30:44;14.13;;;5.40;;
26311;SDS011;14019;56.964;24.016;2023-05-10T14:33:30;10.85;;;5.15;;
26311;SDS011;14019;56.964;24.016;2023-05-10T14:36:17;10.57;;;4.25;;
26311;SDS011;14019;56.964;24.016;2023-05-10T14:39:04;11.30;;;4.82;;
26311;SDS011;14019;56.964;24.016;2023-05-10T14:41:53;16.55;;;5.25;;
26311;SDS011;14019;56.964;24.016;2023-05-10T14:44:40;10.27;;;4.82;;
26311;SDS011;14019;56.964;24.016;2023-05-10T14:47:27;11.68;;;5.93;;
26311;SDS011;14019;56.964;24.016;2023-05-10T14:50:14;11.70;;;5.80;;
26311;SDS011;14019;56.964;24.016;2023-05-10T14:53:20;15.52;;;5.90;;
26311;SDS011;14019;56.964;24.016;2023-05-10T14:56:06;14.10;;;5.07;;
26311;SDS011;14019;56.964;24.016;2023-05-10T14:58:53;9.77;;;5.07;;
26311;SDS011;14019;56.964;24.016;2023-05-10T15:01:41;10.68;;;5.15;;
26311;SDS011;14019;56.964;24.016;2023-05-10T15:04:28;15.02;;;5.00;;
26311;SDS011;14019;56.964;24.016;2023-05-10T15:07:16;11.60;;;4.75;;
26311;SDS011;14019;56.964;24.016;2023-05-10T15:10:03;13.07;;;4.80;;
26311;SDS011;14019;56.964;24.016;2023-05-10T15:12:50;12.45;;;4.53;;
26311;SDS011;14019;56.964;24.016;2023-05-10T15:15:37;10.75;;;5.10;;
26311;SDS011;14019;56.964;24.016;2023-05-10T15:18:23;13.52;;;5.50;;
26311;SDS011;14019;56.964;24.016;2023-05-10T15:21:10;16.92;;;6.35;;
26311;SDS011;14019;56.964;24.016;2023-05-10T15:23:57;22.33;;;11.45;;
26311;SDS011;14019;56.964;24.016;2023-05-10T15:26:43;38.35;;;22.60;;
26311;SDS011;14019;56.964;24.016;2023-05-10T15:29:30;15.55;;;10.07;;
26311;SDS011;14019;56.964;24.016;2023-05-10T15:32:17;20.83;;;8.40;;
26311;SDS011;14019;56.964;24.016;2023-05-10T15:35:04;15.80;;;9.60;;
26311;SDS011;14019;56.964;24.016;2023-05-10T15:37:53;14.93;;;7.00;;
26311;SDS011;14019;56.964;24.016;2023-05-10T15:40:39;11.25;;;6.65;;
26311;SDS011;14019;56.964;24.016;2023-05-10T15:43:25;19.52;;;9.85;;
26311;SDS011;14019;56.964;24.016;2023-05-10T15:46:13;17.85;;;11.55;;
26311;SDS011;14019;56.964;24.016;2023-05-10T15:49:00;24.02;;;11.68;;
26311;SDS011;14019;56.964;24.016;2023-05-10T15:51:49;20.80;;;11.80;;
26311;SDS011;14019;56.964;24.016;2023-05-10T15:54:36;18.05;;;12.02;;
26311;SDS011;14019;56.964;24.016;2023-05-10T15:57:26;18.35;;;10.45;;
26311;SDS011;14019;56.964;24.016;2023-05-10T16:00:12;15.70;;;9.27;;
26311;SDS011;14019;56.964;24.016;2023-05-10T16:02:59;13.77;;;8.27;;
26311;SDS011;14019;56.964;24.016;2023-05-10T16:05:46;15.27;;;7.20;;
26311;SDS011;14019;56.964;24.016;2023-05-10T16:08:34;15.82;;;6.70;;
26311;SDS011;14019;56.964;24.016;2023-05-10T16:11:24;11.10;;;5.88;;
26311;SDS011;14019;56.964;24.016;2023-05-10T16:14:11;9.32;;;6.25;;
26311;SDS011;14019;56.964;24.016;2023-05-10T16:16:57;14.48;;;6.80;;
26311;SDS011;14019;56.964;24.016;2023-05-10T16:19:45;15.45;;;6.80;;
26311;SDS011;14019;56.964;24.016;2023-05-10T16:22:34;15.88;;;7.05;;
26311;SDS011;14019;56.964;24.016;2023-05-10T16:25:21;18.27;;;7.30;;
26311;SDS011;14019;56.964;24.016;2023-05-10T16:28:08;16.50;;;7.88;;
26311;SDS011;14019;56.964;24.016;2023-05-10T16:30:54;19.10;;;8.00;;
26311;SDS011;14019;56.964;24.016;2023-05-10T16:33:41;14.98;;;8.77;;
26311;SDS011;14019;56.964;24.016;2023-05-10T16:36:28;16.23;;;8.75;;
26311;SDS011;14019;56.964;24.016;2023-05-10T16:39:19;11.40;;;7.40;;
26311;SDS011;14019;56.964;24.016;2023-05-10T16:42:06;13.95;;;7.45;;
26311;SDS011;14019;56.964;24.016;2023-05-10T16:44:53;16.42;;;6.50;;
26311;SDS011;14019;56.964;24.016;2023-05-10T16:47:40;16.05;;;7.70;;
26311;SDS011;14019;56.964;24.016;2023-05-10T16:50:27;16.73;;;7.60;;
26311;SDS011;14019;56.964;24.016;2023-05-10T16:53:14;20.55;;;7.60;;
26311;SDS011;14019;56.964;24.016;2023-05-10T16:56:00;14.05;;;8.55;;
26311;SDS011;14019;56.964;24.016;2023-05-10T16:58:47;13.52;;;7.32;;
26311;SDS011;14019;56.964;24.016;2023-05-10T17:01:34;14.93;;;6.70;;
26311;SDS011;14019;56.964;24.016;2023-05-10T17:04:23;13.05;;;6.93;;
26311;SDS011;14019;56.964;24.016;2023-05-10T17:07:09;17.45;;;7.00;;
26311;SDS011;14019;56.964;24.016;2023-05-10T17:09:57;13.75;;;5.32;;
26311;SDS011;14019;56.964;24.016;2023-05-10T17:12:44;15.13;;;5.93;;
26311;SDS011;14019;56.964;24.016;2023-05-10T17:15:30;16.48;;;6.38;;
26311;SDS011;14019;56.964;24.016;2023-05-10T17:18:16;12.25;;;5.35;;
26311;SDS011;14019;56.964;24.016;2023-05-10T17:21:04;19.08;;;5.60;;
26311;SDS011;14019;56.964;24.016;2023-05-10T17:23:51;10.80;;;4.60;;
26311;SDS011;14019;56.964;24.016;2023-05-10T17:26:37;10.15;;;4.78;;
26311;SDS011;14019;56.964;24.016;2023-05-10T17:29:24;8.73;;;4.80;;
26311;SDS011;14019;56.964;24.016;2023-05-10T17:32:11;13.13;;;4.40;;
26311;SDS011;14019;56.964;24.016;2023-05-10T17:34:57;7.40;;;4.43;;
26311;SDS011;14019;56.964;24.016;2023-05-10T17:37:43;10.13;;;4.70;;
26311;SDS011;14019;56.964;24.016;2023-05-10T17:40:30;17.35;;;5.40;;
26311;SDS011;14019;56.964;24.016;2023-05-10T17:43:17;17.33;;;5.78;;
26311;SDS011;14019;56.964;24.016;2023-05-10T17:46:03;11.68;;;4.85;;
26311;SDS011;14019;56.964;24.016;2023-05-10T17:48:53;15.85;;;5.03;;
26311;SDS011;14019;56.964;24.016;2023-05-10T17:51:39;27.70;;;4.95;;